Time;durP1;ratioP1;P1;durP2;ratioP2;P2;SDS_P1;SDS_P2;PMS_P1;PMS_P2;Temp;Humidity;BMP_temperature;BMP_pressure;BME280_temperature;BME280_humidity;BME280_pressure;Samples;Min_cycle;Max_cycle;Signal;HPM_P1;HPM_P2
2022/05/27 00:01:26;;;;;;;;;2.67;1.33;;;;;19.88;46.74;102232.03;4960539;28;45537;-91
2022/05/27 00:03:52;;;;;;;;;4.00;2.00;;;;;19.42;47.13;102156.28;4978547;28;45523;-91
2022/05/27 00:06:18;;;;;;;;;1.33;1.33;;;;;19.34;47.28;102132.41;4957451;28;45516;-91
2022/05/27 00:08:43;;;;;;;;;2.00;1.00;;;;;19.74;47.09;102206.69;4972294;28;47123;-91
2022/05/27 00:11:09;;;;;;;;;5.67;5.67;;;;;19.59;47.49;102175.97;4972943;28;45627;-90
2022/05/27 00:13:34;;;;;;;;;0.00;0.00;;;;;19.63;47.28;102192.03;4963028;28;45358;-91
2022/05/27 00:16:00;;;;;;;;;1.00;1.00;;;;;19.31;47.55;102146.97;4962900;28;45314;-92
2022/05/27 00:18:25;;;;;;;;;3.33;2.00;;;;;19.39;47.71;102171.72;4956568;28;48368;-92
2022/05/27 00:20:51;;;;;;;;;1.00;1.00;;;;;19.71;47.72;102224.94;4960759;28;45323;-91
2022/05/27 00:23:17;;;;;;;;;2.00;2.00;;;;;19.51;47.83;102188.22;4971854;28;45376;-92
2022/05/27 00:25:43;;;;;;;;;0.00;0.00;;;;;19.45;47.54;102172.34;4959875;28;45445;-92
2022/05/27 00:28:09;;;;;;;;;0.67;0.00;;;;;19.06;47.86;102106.09;4957831;28;47668;-91
2022/05/27 00:30:35;;;;;;;;;1.00;1.00;;;;;19.65;48.00;102204.50;4972343;28;45500;-92
2022/05/27 00:33:00;;;;;;;;;0.00;0.00;;;;;19.40;47.88;102169.88;4976309;28;45518;-92
2022/05/27 00:35:26;;;;;;;;;1.67;1.67;;;;;19.37;48.11;102159.25;4969998;28;45550;-92
2022/05/27 00:37:52;;;;;;;;;0.00;0.00;;;;;19.49;47.72;102185.59;5026615;28;47762;-92
2022/05/27 00:40:19;;;;;;;;;0.00;0.00;;;;;19.06;48.52;102131.31;5040004;28;45431;-92
2022/05/27 00:42:46;;;;;;;;;1.00;0.00;;;;;18.93;48.44;102103.22;5041141;28;45985;-92
2022/05/27 00:45:40;;;;;;;;;1.00;1.00;;;;;19.44;48.21;102192.22;5024566;28;45536;-92
2022/05/27 00:48:14;;;;;;;;;1.00;1.00;;;;;18.73;48.59;102094.41;5039371;28;47024;-92
2022/05/27 00:50:42;;;;;;;;;1.00;0.00;;;;;19.36;48.57;102195.34;5045643;28;45299;-92
2022/05/27 00:53:22;;;;;;;;;1.00;1.00;;;;;19.31;49.11;102192.06;5035389;28;45422;-92
2022/05/27 00:55:55;;;;;;;;;0.00;0.00;;;;;19.03;49.05;102157.63;5021143;28;45522;-93
2022/05/27 00:58:27;;;;;;;;;0.00;0.00;;;;;19.13;49.12;102181.34;5021673;28;48342;-91
2022/05/27 01:00:53;;;;;;;;;0.00;0.00;;;;;18.40;48.93;102064.75;5041931;28;45403;-91
2022/05/27 01:03:20;;;;;;;;;1.00;0.00;;;;;18.63;49.57;102103.97;5030328;28;45482;-91
2022/05/27 01:05:45;;;;;;;;;0.33;0.00;;;;;18.77;49.48;102136.50;5031014;28;45413;-91
2022/05/27 01:08:14;;;;;;;;;0.00;0.00;;;;;18.98;49.67;102158.75;5031031;28;46915;-91
2022/05/27 01:11:18;;;;;;;;;2.00;0.00;;;;;19.09;49.67;102182.47;5034257;28;45395;-91
2022/05/27 01:13:58;;;;;;;;;0.00;0.00;;;;;18.93;50.02;102162.69;4981139;28;45338;-92
2022/05/27 01:17:11;;;;;;;;;0.00;0.00;;;;;19.00;49.96;102177.59;5012072;28;45503;-91
2022/05/27 01:23:03;;;;;;;;;0.00;0.00;;;;;18.57;50.23;102125.94;4956823;28;45345;-91
2022/05/27 01:25:50;;;;;;;;;0.00;0.00;;;;;18.89;50.37;102177.31;4972092;28;45500;-91
2022/05/27 01:28:45;;;;;;;;;0.00;0.00;;;;;18.85;50.90;102182.03;4972279;28;45369;-91
2022/05/27 01:31:21;;;;;;;;;2.00;1.00;;;;;18.62;50.18;102149.97;4968949;28;47376;-91
2022/05/27 01:34:14;;;;;;;;;2.00;0.00;;;;;18.81;51.06;102171.47;4960797;28;45532;-91
2022/05/27 01:36:42;;;;;;;;;0.00;0.00;;;;;18.76;51.00;102174.41;4957716;28;45596;-92
2022/05/27 01:39:22;;;;;;;;;0.00;0.00;;;;;18.60;51.08;102158.16;4960561;28;45596;-91
2022/05/27 01:42:24;;;;;;;;;0.33;0.33;;;;;18.68;51.55;102182.03;4959807;28;45817;-91
2022/05/27 01:44:57;;;;;;;;;2.00;1.00;;;;;18.69;51.84;102179.25;4959880;28;45502;-92
2022/05/27 01:47:35;;;;;;;;;1.67;1.00;;;;;18.66;51.63;102175.84;4959911;28;45687;-92
2022/05/27 01:50:20;;;;;;;;;0.33;0.33;;;;;18.36;51.60;102130.69;4961490;28;45311;-92
2022/05/27 01:52:59;;;;;;;;;0.67;0.00;;;;;18.62;51.36;102179.69;4962777;28;47481;-91
2022/05/27 01:55:33;;;;;;;;;0.00;0.00;;;;;18.50;51.55;102165.03;5006955;28;45302;-91
2022/05/27 01:58:02;;;;;;;;;2.00;1.00;;;;;17.76;51.93;102036.72;5042170;28;45438;-91
2022/05/27 02:00:29;;;;;;;;;3.00;1.00;;;;;18.02;51.74;102088.44;5042345;28;45368;-91
2022/05/27 02:03:19;;;;;;;;;0.00;0.00;;;;;18.56;51.78;102178.19;5025906;28;47341;-91
2022/05/27 02:06:04;;;;;;;;;0.00;0.00;;;;;18.22;51.87;102135.94;5048014;28;45371;-90
2022/05/27 02:08:36;;;;;;;;;2.00;0.67;;;;;18.23;51.67;102135.00;5034407;28;45474;-91
2022/05/27 02:11:06;;;;;;;;;1.33;1.33;;;;;18.48;52.09;102184.00;5040232;28;45471;-91
2022/05/27 02:13:49;;;;;;;;;1.00;1.00;;;;;18.28;51.73;102144.56;5038193;28;47049;-91
2022/05/27 02:16:21;;;;;;;;;2.00;0.67;;;;;17.67;52.05;102032.69;5054583;28;45434;-91
2022/05/27 02:18:54;;;;;;;;;2.00;0.00;;;;;18.33;51.84;102149.72;5042566;28;45512;-91
2022/05/27 02:21:29;;;;;;;;;1.00;1.00;;;;;18.52;52.06;102177.50;5044413;28;45740;-90
2022/05/27 02:24:03;;;;;;;;;1.00;1.00;;;;;17.52;52.23;102010.09;5050724;28;45466;-92
2022/05/27 02:26:36;;;;;;;;;1.33;0.33;;;;;18.43;51.72;102155.53;5050732;28;45699;-91
2022/05/27 02:29:08;;;;;;;;;0.33;0.33;;;;;18.19;51.73;102123.50;5033960;28;45613;-91
2022/05/27 02:31:37;;;;;;;;;1.00;0.33;;;;;18.35;52.10;102139.72;5024042;28;45432;-92
2022/05/27 02:37:02;;;;;;;;;2.67;1.00;;;;;18.51;51.92;102178.44;5043232;28;45313;-90
2022/05/27 02:39:27;;;;;;;;;1.00;1.00;;;;;18.52;51.50;102173.91;5044017;28;45372;-91
2022/05/27 02:42:06;;;;;;;;;1.00;1.00;;;;;18.28;52.07;102131.06;5028506;28;45422;-92
2022/05/27 02:44:52;;;;;;;;;1.00;1.00;;;;;18.52;51.94;102169.38;5033805;28;48154;-91
2022/05/27 02:47:35;;;;;;;;;1.33;1.33;;;;;18.50;51.95;102174.00;5043619;28;45527;-91
2022/05/27 02:50:26;;;;;;;;;2.33;1.00;;;;;18.30;52.07;102139.09;5021768;28;47827;-90
2022/05/27 02:52:54;;;;;;;;;1.00;1.00;;;;;18.50;51.93;102170.44;5025766;28;45623;-91
2022/05/27 02:55:51;;;;;;;;;2.00;2.00;;;;;18.48;51.92;102169.63;5055535;28;46127;-91
2022/05/27 02:58:17;;;;;;;;;1.00;1.00;;;;;18.26;51.88;102151.00;5045540;28;45472;-91
2022/05/27 03:00:45;;;;;;;;;2.00;1.00;;;;;18.51;51.94;102178.44;5022686;28;45423;-92
2022/05/27 03:03:10;;;;;;;;;2.33;1.67;;;;;18.11;52.25;102113.09;5045556;28;45560;-93
2022/05/27 03:05:41;;;;;;;;;1.33;1.00;;;;;18.32;52.31;102138.06;5050884;28;45970;-92
2022/05/27 03:08:12;;;;;;;;;1.00;1.00;;;;;18.61;52.23;102186.03;5043633;28;45507;-91
2022/05/27 03:11:02;;;;;;;;;1.00;1.00;;;;;18.62;52.08;102177.00;5024145;28;45360;-91
2022/05/27 03:14:02;;;;;;;;;2.00;1.33;;;;;18.35;51.94;102137.91;5055730;28;45317;-91
2022/05/27 03:16:51;;;;;;;;;3.00;1.67;;;;;18.52;52.42;102161.28;5052715;28;48634;-91
2022/05/27 03:19:52;;;;;;;;;1.67;1.67;;;;;18.18;52.47;102105.53;5052083;28;45443;-91
2022/05/27 03:22:33;;;;;;;;;1.00;0.00;;;;;18.11;52.23;102090.66;5053866;28;45400;-92
2022/05/27 03:25:13;;;;;;;;;1.00;1.00;;;;;18.61;52.25;102173.38;5051094;28;45202;-91
2022/05/27 03:27:58;;;;;;;;;2.67;2.00;;;;;18.62;51.74;102177.00;5051303;28;45707;-91
2022/05/27 03:30:31;;;;;;;;;3.00;2.00;;;;;18.61;52.08;102178.78;5039736;28;45437;-92
2022/05/27 03:33:09;;;;;;;;;1.67;1.00;;;;;18.40;52.25;102145.72;5025402;28;45424;-91
2022/05/27 03:35:52;;;;;;;;;0.33;0.33;;;;;18.42;51.94;102153.75;5025424;28;45451;-91
2022/05/27 03:38:30;;;;;;;;;0.67;0.67;;;;;17.94;51.89;102067.28;5020142;28;47768;-92
2022/05/27 03:41:06;;;;;;;;;2.00;1.00;;;;;18.58;52.02;102178.97;5033347;28;45684;-91
2022/05/27 03:43:34;;;;;;;;;4.00;2.00;;;;;18.20;52.09;102116.28;5054726;28;45453;-91
2022/05/27 03:46:00;;;;;;;;;2.00;2.00;;;;;18.35;51.93;102139.72;5022274;28;45438;-91
2022/05/27 03:48:28;;;;;;;;;2.67;1.67;;;;;18.27;52.19;102129.34;5048347;28;46318;-91
2022/05/27 03:50:58;;;;;;;;;1.00;1.00;;;;;18.27;51.64;102131.19;5049797;28;45529;-91
2022/05/27 03:56:09;;;;;;;;;2.67;2.67;;;;;18.47;51.43;102165.19;5042847;28;45535;-92
2022/05/27 03:58:35;;;;;;;;;2.00;2.00;;;;;18.34;51.88;102146.09;5038366;28;45396;-92
2022/05/27 04:01:00;;;;;;;;;1.67;1.67;;;;;18.42;51.97;102161.84;5042830;28;45462;-91
2022/05/27 04:03:25;;;;;;;;;3.00;1.67;;;;;18.43;51.87;102158.22;5042426;28;49633;-91
2022/05/27 04:05:51;;;;;;;;;1.67;1.67;;;;;18.54;51.91;102182.78;5044022;28;45456;-91
2022/05/27 04:08:16;;;;;;;;;1.00;1.00;;;;;18.45;52.10;102167.97;5040291;28;45615;-90
2022/05/27 04:10:42;;;;;;;;;2.00;2.00;;;;;18.50;52.21;102181.22;5053450;28;45498;-90
2022/05/27 04:13:07;;;;;;;;;2.33;2.00;;;;;18.45;52.46;102167.97;5054874;28;45312;-91
2022/05/27 04:15:32;;;;;;;;;1.67;1.67;;;;;18.14;51.94;102118.34;5054083;28;45512;-92
2022/05/27 04:17:58;;;;;;;;;3.00;2.00;;;;;18.28;51.99;102143.69;5031279;28;48189;-91
2022/05/27 04:20:23;;;;;;;;;4.00;2.00;;;;;18.19;52.41;102125.31;5049025;28;45383;-91
2022/05/27 04:22:54;;;;;;;;;5.00;2.00;;;;;18.30;52.25;102156.16;5051817;28;45451;-90
2022/05/27 04:25:20;;;;;;;;;2.00;1.00;;;;;18.32;52.26;102167.75;5054606;28;45346;-91
2022/05/27 04:27:45;;;;;;;;;3.00;3.00;;;;;18.45;52.62;102197.69;5040669;28;46434;-91
2022/05/27 04:30:11;;;;;;;;;1.67;1.67;;;;;17.89;52.54;102102.59;5023632;28;45381;-92
2022/05/27 04:32:37;;;;;;;;;1.67;1.67;;;;;18.46;52.45;102195.84;5042103;28;45353;-91
2022/05/27 04:35:02;;;;;;;;;2.00;2.00;;;;;18.06;52.55;102136.75;5024272;28;45717;-91
2022/05/27 04:37:28;;;;;;;;;3.00;2.00;;;;;18.43;52.54;102185.22;5038149;28;45509;-90
2022/05/27 04:39:53;;;;;;;;;2.00;2.00;;;;;17.71;52.33;102068.47;5034650;28;45499;-91
2022/05/27 04:42:19;;;;;;;;;2.67;2.67;;;;;18.51;52.70;102201.88;5049682;28;45558;-91
2022/05/27 04:44:44;;;;;;;;;3.67;2.00;;;;;18.51;52.51;102194.63;5049057;28;45536;-91
2022/05/27 04:47:11;;;;;;;;;3.00;2.00;;;;;17.88;52.47;102100.81;5053088;28;46398;-91
2022/05/27 04:49:56;;;;;;;;;3.00;3.00;;;;;18.53;52.53;102190.03;5037525;28;45518;-91
2022/05/27 04:52:26;;;;;;;;;3.33;2.00;;;;;18.52;52.45;102192.81;5039367;28;45428;-90
2022/05/27 04:54:53;;;;;;;;;3.00;2.33;;;;;18.33;52.64;102160.53;5043236;28;45538;-91
2022/05/27 04:57:22;;;;;;;;;2.33;2.33;;;;;18.17;52.53;102135.31;5042452;28;47372;-91
2022/05/27 04:59:49;;;;;;;;;1.00;1.00;;;;;18.35;52.24;102158.63;5025039;28;45310;-91
2022/05/27 05:02:20;;;;;;;;;2.00;2.00;;;;;18.27;52.67;102150.94;5048446;28;45344;-90
2022/05/27 05:04:46;;;;;;;;;2.00;2.00;;;;;18.53;52.93;102195.41;5037753;28;45483;-91
2022/05/27 05:07:12;;;;;;;;;3.33;2.67;;;;;18.01;52.56;102109.16;5053547;28;45479;-90
2022/05/27 05:09:40;;;;;;;;;2.67;2.67;;;;;18.09;52.88;102124.94;5050009;28;45467;-91
2022/05/27 05:12:07;;;;;;;;;4.67;4.00;;;;;18.35;52.80;102169.41;5027561;28;45396;-92
2022/05/27 05:14:32;;;;;;;;;5.00;3.33;;;;;18.22;52.76;102150.31;5044808;28;45562;-91
2022/05/27 05:17:01;;;;;;;;;2.67;2.67;;;;;18.29;52.89;102164.34;5049941;28;46233;-91
2022/05/27 05:19:27;;;;;;;;;3.00;3.00;;;;;18.49;53.02;102203.78;5035161;28;45859;-91
2022/05/27 05:21:53;;;;;;;;;5.33;4.33;;;;;18.34;53.46;102176.66;5023871;28;45370;-91
2022/05/27 05:24:18;;;;;;;;;3.00;3.00;;;;;18.29;52.98;102165.22;5041542;28;45438;-91
2022/05/27 05:26:43;;;;;;;;;5.00;3.00;;;;;18.12;52.99;102133.75;5041191;28;46034;-90
2022/05/27 05:29:09;;;;;;;;;5.00;4.67;;;;;18.05;52.76;102115.25;5029829;28;45317;-91
2022/05/27 05:31:35;;;;;;;;;5.00;5.00;;;;;18.25;52.94;102152.84;5051905;28;45330;-90
2022/05/27 05:34:00;;;;;;;;;5.00;3.00;;;;;18.08;52.88;102124.06;5042010;28;45618;-91
2022/05/27 05:36:28;;;;;;;;;5.67;5.67;;;;;17.76;53.07;102073.59;5041042;28;46981;-90
2022/05/27 05:38:54;;;;;;;;;5.67;5.67;;;;;18.16;53.30;102139.84;5041214;28;45495;-90
2022/05/27 05:41:31;;;;;;;;;7.50;7.50;;;;;18.25;53.14;102158.25;5040652;28;45345;-91
2022/05/27 05:43:58;;;;;;;;;7.67;6.33;;;;;18.50;53.18;102194.72;5039692;28;45400;-90
2022/05/27 05:46:25;;;;;;;;;9.67;6.33;;;;;18.50;53.69;102195.59;5056650;28;47214;-90
2022/05/27 05:48:50;;;;;;;;;10.67;8.33;;;;;18.12;53.46;102128.34;5058966;28;45229;-91
2022/05/27 05:51:16;;;;;;;;;9.33;8.00;;;;;18.54;53.53;102204.38;5033206;28;45491;-91
2022/05/27 05:53:41;;;;;;;;;6.67;6.67;;;;;18.55;53.55;102198.91;5035083;28;45276;-91
2022/05/27 05:56:07;;;;;;;;;10.33;9.00;;;;;18.10;53.73;102124.00;5051788;28;45704;-91
2022/05/27 05:58:32;;;;;;;;;10.67;9.00;;;;;18.48;53.43;102191.25;5056325;28;45324;-91
2022/05/27 06:00:58;;;;;;;;;9.67;8.67;;;;;18.46;53.32;102183.22;5045594;28;45589;-91
2022/05/27 06:03:24;;;;;;;;;11.33;9.67;;;;;18.08;53.31;102118.66;5045364;28;45574;-92
2022/05/27 06:05:51;;;;;;;;;9.00;8.00;;;;;18.38;53.82;102173.78;5048110;28;47205;-91
2022/05/27 06:08:18;;;;;;;;;10.33;7.33;;;;;18.27;53.67;102155.47;5052246;28;45430;-90
2022/05/27 06:10:48;;;;;;;;;10.00;5.67;;;;;18.18;53.75;102131.66;5023800;28;45404;-91
2022/05/27 06:13:13;;;;;;;;;5.67;5.67;;;;;18.22;54.21;102147.63;5057460;28;45473;-93
2022/05/27 06:15:44;;;;;;;;;4.67;4.67;;;;;18.59;53.73;102212.25;5045158;28;45686;-91
2022/05/27 06:18:13;;;;;;;;;6.00;3.33;;;;;17.83;54.22;102078.63;5022335;28;45992;-92
2022/05/27 06:20:40;;;;;;;;;4.33;4.33;;;;;18.40;54.50;102178.13;5026832;28;45433;-91
2022/05/27 06:23:07;;;;;;;;;8.00;6.00;;;;;18.49;54.70;102180.34;5052970;28;45589;-91
2022/05/27 06:25:33;;;;;;;;;2.33;2.33;;;;;18.34;54.49;102162.28;5056439;28;46814;-92
2022/05/27 06:36:12;;;;;;;;;1.67;1.00;;;;;17.82;54.52;102084.97;5043971;28;45894;-92
2022/05/27 06:38:38;;;;;;;;;4.00;3.00;;;;;18.45;54.78;102194.97;5044061;28;45625;-91
2022/05/27 06:41:04;;;;;;;;;4.67;4.33;;;;;18.17;54.53;102146.09;5052143;28;45307;-92
2022/05/27 06:43:31;;;;;;;;;4.33;4.33;;;;;18.59;54.77;102210.44;5056241;28;45325;-91
2022/05/27 06:45:58;;;;;;;;;6.67;3.67;;;;;18.45;54.35;102197.69;5054845;28;45369;-91
2022/05/27 06:48:23;;;;;;;;;4.00;4.00;;;;;18.42;54.60;102184.31;5032600;28;46057;-91
2022/05/27 06:50:49;;;;;;;;;10.00;7.00;;;;;18.34;54.67;102170.38;5032958;28;45530;-91
2022/05/27 06:53:22;;;;;;;;;4.00;4.00;;;;;17.77;54.45;102057.34;5049986;28;45479;-91
2022/05/27 06:55:49;;;;;;;;;6.00;5.67;;;;;18.40;54.32;102171.88;5053141;28;46337;-91
2022/05/27 06:58:15;;;;;;;;;6.33;6.33;;;;;17.97;54.80;102071.63;5037254;28;46206;-92
2022/05/27 07:00:41;;;;;;;;;5.67;4.33;;;;;17.99;54.16;102078.69;5052274;28;45507;-91
2022/05/27 07:03:07;;;;;;;;;8.00;3.33;;;;;18.37;54.02;102137.81;5029907;28;45566;-93
2022/05/27 07:05:33;;;;;;;;;4.67;4.67;;;;;18.55;54.05;102160.25;5040603;28;46708;-92
2022/05/27 07:07:58;;;;;;;;;5.33;4.00;;;;;18.10;54.45;102083.50;5024789;28;45557;-94
2022/05/27 07:10:25;;;;;;;;;7.33;4.00;;;;;18.51;54.06;102139.75;5063337;28;45453;-94
2022/05/27 07:12:58;;;;;;;;;6.67;5.33;;;;;18.51;53.59;102124.44;5027772;28;45544;-91
2022/05/27 07:15:24;;;;;;;;;7.33;6.00;;;;;18.77;53.50;102152.72;5047326;28;45592;-92
2022/05/27 07:17:49;;;;;;;;;11.33;8.33;;;;;19.16;53.57;102199.22;5045714;28;45457;-92
2022/05/27 07:20:15;;;;;;;;;7.33;6.00;;;;;18.43;53.05;102078.09;5026308;28;46891;-92
2022/05/27 07:22:40;;;;;;;;;6.00;5.00;;;;;19.07;53.05;102172.72;5038442;28;45296;-93
2022/05/27 07:25:06;;;;;;;;;6.67;6.67;;;;;18.97;52.94;102148.03;5058905;28;45332;-91
2022/05/27 07:27:31;;;;;;;;;5.67;5.67;;;;;19.22;52.56;102171.81;5051331;28;45474;-92
2022/05/27 07:29:56;;;;;;;;;10.00;7.00;;;;;19.27;52.97;102171.56;5032186;28;45523;-92
2022/05/27 07:32:22;;;;;;;;;6.67;5.33;;;;;19.59;52.25;102215.66;5050961;28;45444;-92
2022/05/27 07:37:42;;;;;;;;;6.67;4.67;;;;;19.75;52.65;102221.94;5016193;28;45478;-90
2022/05/27 07:40:09;;;;;;;;;4.67;4.67;;;;;19.79;51.58;102223.53;5033054;28;45379;-91
2022/05/27 07:42:34;;;;;;;;;13.00;8.33;;;;;19.22;52.36;102133.97;5025247;28;45521;-91
2022/05/27 07:44:59;;;;;;;;;6.33;6.33;;;;;18.91;52.33;102081.69;5020608;28;45610;-91
2022/05/27 07:47:25;;;;;;;;;7.00;6.00;;;;;19.77;51.91;102213.75;5003906;28;45924;-91
2022/05/27 07:49:50;;;;;;;;;5.67;4.33;;;;;19.60;51.77;102184.97;5018189;28;45524;-92
2022/05/27 07:52:16;;;;;;;;;5.67;5.00;;;;;19.39;52.15;102158.22;5018711;28;45491;-90
2022/05/27 07:54:41;;;;;;;;;6.67;6.67;;;;;19.60;52.05;102193.94;5020620;28;46774;-91
2022/05/27 07:57:23;;;;;;;;;4.00;4.00;;;;;19.79;52.16;102215.41;5020351;28;45466;-90
2022/05/27 07:59:50;;;;;;;;;7.00;6.00;;;;;19.49;52.35;102165.78;5020245;28;45507;-90
2022/05/27 08:02:16;;;;;;;;;3.33;3.33;;;;;19.48;52.32;102164.03;5020091;28;45592;-91
2022/05/27 08:04:41;;;;;;;;;5.00;4.33;;;;;19.48;52.22;102167.63;5000533;28;48545;-91
2022/05/27 08:07:07;;;;;;;;;3.67;2.00;;;;;19.73;52.50;102217.59;5021388;28;45547;-91
2022/05/27 08:09:32;;;;;;;;;4.00;4.00;;;;;19.68;52.20;102206.16;5023240;28;45541;-93
2022/05/27 08:11:57;;;;;;;;;2.00;2.00;;;;;19.21;52.85;102136.78;5022189;28;45530;-92
2022/05/27 08:14:23;;;;;;;;;7.00;6.00;;;;;19.57;52.92;102193.25;5034505;28;47181;-92
2022/05/27 08:16:48;;;;;;;;;4.00;2.67;;;;;19.52;52.63;102190.81;5054503;28;45332;-91
2022/05/27 08:19:14;;;;;;;;;4.67;4.00;;;;;19.36;52.68;102160.22;5058238;28;45534;-91
2022/05/27 08:21:48;;;;;;;;;4.00;4.00;;;;;19.70;53.16;102220.50;5022332;28;45537;-90
2022/05/27 08:24:13;;;;;;;;;5.00;5.00;;;;;19.71;53.50;102222.22;5026842;28;47377;-91
2022/05/27 08:26:39;;;;;;;;;4.00;4.00;;;;;19.69;53.15;102226.84;5050828;28;45285;-91
2022/05/27 08:29:04;;;;;;;;;5.00;4.00;;;;;19.69;53.25;102226.84;5038407;28;45539;-90
2022/05/27 08:31:30;;;;;;;;;3.00;3.00;;;;;19.63;53.65;102216.38;5037847;28;45340;-91
2022/05/27 08:39:24;;;;;;;;;5.67;5.33;;;;;19.60;54.07;102229.09;5054855;28;45554;-91
2022/05/27 08:42:06;;;;;;;;;4.00;4.00;;;;;19.09;54.16;102136.53;5027798;28;45492;-91
2022/05/27 08:45:08;;;;;;;;;3.00;3.00;;;;;19.62;54.29;102226.31;5026246;28;47963;-91
2022/05/27 08:47:42;;;;;;;;;5.33;2.33;;;;;19.49;54.05;102196.41;5043083;28;45582;-90
2022/05/27 08:50:38;;;;;;;;;5.00;3.00;;;;;19.50;54.41;102194.56;5041519;28;45542;-91
2022/05/27 08:53:22;;;;;;;;;2.00;2.00;;;;;19.63;54.46;102216.38;5008041;28;45414;-89
2022/05/27 09:01:31;;;;;;;;;5.00;3.33;;;;;19.44;54.93;102205.75;5053634;28;45528;-89
2022/05/27 09:04:15;;;;;;;;;3.67;2.67;;;;;19.56;54.55;102221.25;5042864;28;45462;-90
2022/05/27 09:07:06;;;;;;;;;4.67;3.33;;;;;19.57;54.88;102220.28;5052986;28;47365;-91
2022/05/27 09:09:33;;;;;;;;;4.00;3.00;;;;;19.57;54.90;102221.19;4991263;28;45500;-90
2022/05/27 09:12:32;;;;;;;;;5.00;2.00;;;;;19.60;54.84;102225.53;4984742;28;45546;-90
2022/05/27 09:15:02;;;;;;;;;2.00;2.00;;;;;19.59;55.18;102226.47;4980463;28;45548;-91
2022/05/27 09:17:41;;;;;;;;;2.33;2.00;;;;;19.24;55.10;102158.22;4979093;28;47183;-92
2022/05/27 09:20:32;;;;;;;;;3.00;3.00;;;;;19.63;55.25;102230.75;4979244;28;45798;-90
2022/05/27 09:23:18;;;;;;;;;1.00;1.00;;;;;19.63;55.28;102227.19;4963193;28;45348;-90
2022/05/27 09:26:24;;;;;;;;;3.00;3.00;;;;;19.65;55.02;102227.97;4977078;28;45470;-91
2022/05/27 09:28:55;;;;;;;;;2.67;2.33;;;;;19.68;54.83;102225.09;4964285;28;47109;-93
2022/05/27 09:31:32;;;;;;;;;3.00;3.00;;;;;19.67;55.30;102221.50;4961958;28;45545;-90
2022/05/27 09:33:58;;;;;;;;;1.00;1.00;;;;;19.49;54.76;102177.47;4989819;28;45393;-90
2022/05/27 09:36:40;;;;;;;;;3.33;3.33;;;;;19.56;55.26;102181.56;4977596;28;45474;-93
2022/05/27 09:39:11;;;;;;;;;3.00;3.00;;;;;19.86;54.94;102215.91;4980345;28;47325;-91
2022/05/27 09:41:55;;;;;;;;;10.00;10.00;;;;;19.78;54.88;102205.56;4971520;28;45527;-89
2022/05/27 09:44:32;;;;;;;;;3.00;3.00;;;;;19.56;54.97;102146.41;4980723;28;45461;-89
2022/05/27 09:46:58;;;;;;;;;4.00;2.67;;;;;19.44;54.91;102125.50;5034202;28;45378;-89
2022/05/27 09:49:23;;;;;;;;;5.00;3.00;;;;;20.09;54.74;102233.50;5034727;28;46997;-89
2022/05/27 09:51:51;;;;;;;;;2.67;2.00;;;;;20.11;54.67;102231.56;5051756;28;45319;-90
2022/05/27 09:54:25;;;;;;;;;3.33;3.33;;;;;20.12;54.13;102217.06;5049387;28;45408;-91
2022/05/27 09:57:14;;;;;;;;;4.00;4.00;;;;;19.65;54.24;102131.47;5048411;28;45588;-90
2022/05/27 09:59:48;;;;;;;;;4.00;4.00;;;;;19.16;54.23;102040.59;5029627;28;47282;-92
2022/05/27 10:02:33;;;;;;;;;3.00;3.00;;;;;20.28;54.27;102211.59;5022229;28;45447;-93
2022/05/27 10:05:14;;;;;;;;;4.67;2.67;;;;;19.95;54.23;102155.84;5040300;28;45365;-90
2022/05/27 10:07:57;;;;;;;;;2.00;2.00;;;;;20.25;53.70;102198.22;5003791;28;45619;-93
2022/05/27 10:10:34;;;;;;;;;2.33;2.33;;;;;20.42;53.70;102199.91;5052635;28;46622;-91
2022/05/27 10:13:22;;;;;;;;;4.00;2.00;;;;;20.48;54.03;102194.09;5053135;28;45518;-90
2022/05/27 10:15:48;;;;;;;;;2.00;2.00;;;;;20.37;53.34;102146.03;5039610;28;45409;-92
2022/05/27 10:18:17;;;;;;;;;5.67;1.33;;;;;20.80;53.45;102191.22;5022807;28;45681;-89
2022/05/27 10:20:58;;;;;;;;;2.67;2.67;;;;;20.86;52.81;102196.25;5040458;28;45709;-89
2022/05/27 10:23:28;;;;;;;;;6.67;4.00;;;;;20.26;53.00;102093.50;5047101;28;45471;-92
2022/05/27 10:25:53;;;;;;;;;2.33;2.00;;;;;20.90;52.87;102205.94;5049771;28;45295;-89
2022/05/27 10:28:29;;;;;;;;;2.00;2.00;;;;;20.74;53.29;102164.50;5035865;28;45606;-89
2022/05/27 10:31:01;;;;;;;;;3.00;3.00;;;;;20.77;53.14;102161.63;5041694;28;47294;-89
2022/05/27 10:33:39;;;;;;;;;3.00;3.00;;;;;20.57;53.00;102124.97;5025360;28;45514;-92
2022/05/27 10:36:32;;;;;;;;;2.67;2.67;;;;;21.01;52.96;102191.69;5051531;28;45614;-92
2022/05/27 10:39:05;;;;;;;;;3.00;3.00;;;;;21.05;52.38;102185.09;5048919;28;45466;-92
2022/05/27 10:41:41;;;;;;;;;3.00;3.00;;;;;21.16;52.73;102190.69;5043643;28;47601;-92
2022/05/27 10:44:14;;;;;;;;;2.00;2.00;;;;;21.50;52.45;102192.06;5025263;28;45471;-91
2022/05/27 10:46:59;;;;;;;;;3.00;3.00;;;;;21.53;51.45;102196.41;5023649;28;45488;-91
2022/05/27 10:49:53;;;;;;;;;4.00;2.67;;;;;21.47;51.85;102180.56;5037437;28;45637;-91
2022/05/27 10:52:21;;;;;;;;;2.67;2.67;;;;;21.59;51.75;102200.59;5010893;28;47485;-92
2022/05/27 10:54:49;;;;;;;;;3.67;3.67;;;;;21.62;51.23;102190.38;5002291;28;45471;-93
2022/05/27 11:03:58;;;;;;;;;3.00;3.00;;;;;21.56;51.21;102147.38;5001171;28;45400;-90
2022/05/27 11:06:42;;;;;;;;;4.00;4.00;;;;;21.84;50.67;102187.06;5001344;28;45507;-91
2022/05/27 11:09:36;;;;;;;;;4.00;4.00;;;;;21.87;50.76;102188.72;5005213;28;45519;-90
2022/05/27 11:15:10;;;;;;;;;5.33;3.00;;;;;22.07;50.59;102181.91;5005797;28;45457;-89
2022/05/27 11:15:51;;;;;;;;;4.00;3.00;;;;;22.22;50.43;102186.31;5005728;28;45955;-90
2022/05/27 11:18:43;;;;;;;;;3.33;2.00;;;;;22.19;49.58;102156.59;5007564;28;45905;-90
2022/05/27 11:21:46;;;;;;;;;5.00;3.33;;;;;22.43;49.28;102177.59;5008504;28;47667;-90
2022/05/27 11:24:27;;;;;;;;;3.33;3.33;;;;;22.46;49.02;102186.41;5005615;28;45487;-89
2022/05/27 11:27:27;;;;;;;;;3.67;3.67;;;;;22.57;48.83;102182.94;4996486;28;47595;-90
2022/05/27 11:30:06;;;;;;;;;5.67;5.00;;;;;22.61;48.41;102172.72;5047961;28;45277;-90
2022/05/27 11:32:54;;;;;;;;;6.00;6.00;;;;;22.57;48.53;102177.50;5049756;28;45764;-89
2022/05/27 11:35:25;;;;;;;;;2.00;2.00;;;;;22.52;48.56;102172.41;5049953;28;45391;-91
2022/05/27 11:38:19;;;;;;;;;4.00;4.00;;;;;22.31;48.60;102144.91;5054006;28;47504;-90
2022/05/27 11:41:06;;;;;;;;;3.67;3.00;;;;;22.50;48.70;102165.31;5012107;28;45681;-90
2022/05/27 11:43:38;;;;;;;;;3.67;3.67;;;;;22.51;48.62;102164.34;5055045;28;45412;-89
2022/05/27 11:46:26;;;;;;;;;2.67;2.67;;;;;22.47;48.97;102162.81;5051170;28;45409;-91
2022/05/27 11:49:29;;;;;;;;;6.67;4.67;;;;;22.37;48.73;102164.47;4982302;28;47377;-90
2022/05/27 11:52:22;;;;;;;;;5.00;3.00;;;;;22.33;49.44;102170.09;4981659;28;45639;-89
2022/05/27 11:55:05;;;;;;;;;6.00;5.00;;;;;22.26;49.48;102160.66;4979746;28;45366;-89
2022/05/27 11:57:40;;;;;;;;;6.33;6.33;;;;;22.03;49.55;102126.97;4965104;28;45445;-90
2022/05/27 12:00:10;;;;;;;;;6.33;5.33;;;;;22.14;50.11;102151.47;4980567;28;46603;-90
2022/05/27 12:02:59;;;;;;;;;4.00;4.00;;;;;22.11;49.53;102156.28;4979563;28;45496;-89
2022/05/27 12:05:36;;;;;;;;;3.67;3.67;;;;;21.83;50.10;102131.03;4990023;28;45631;-90
2022/05/27 12:08:22;;;;;;;;;15.00;12.67;;;;;22.01;50.57;102166.03;4979999;28;45460;-90
2022/05/27 12:10:53;;;;;;;;;11.00;11.00;;;;;22.07;50.14;102162.91;4977301;28;48107;-89
2022/05/27 12:13:41;;;;;;;;;5.33;5.33;;;;;22.09;50.70;102163.66;4961931;28;45502;-90
2022/05/27 12:16:27;;;;;;;;;3.67;2.67;;;;;21.95;50.54;102137.47;4989019;28;45546;-89
2022/05/27 12:19:11;;;;;;;;;2.00;1.67;;;;;21.88;50.10;102120.72;4981622;28;45598;-90
2022/05/27 12:21:44;;;;;;;;;1.67;1.67;;;;;21.83;50.18;102097.59;4964223;28;47350;-89
2022/05/27 12:24:29;;;;;;;;;1.33;1.33;;;;;21.98;50.03;102115.53;4980423;28;45369;-90
2022/05/27 12:26:57;;;;;;;;;1.00;1.00;;;;;22.15;50.15;102127.94;5037134;28;45493;-90
2022/05/27 12:29:24;;;;;;;;;7.33;3.67;;;;;22.27;49.42;102126.22;5040186;28;45450;-91
2022/05/27 12:31:53;;;;;;;;;1.00;1.00;;;;;22.60;49.06;102124.78;5053340;28;45694;-91